sensor_id;sensor_type;location;lat;lon;timestamp;temperature;humidity
46754;DHT22;32500;50.620;3.400;2024-03-07T00:02:13;15.10;71.70
46754;DHT22;32500;50.620;3.400;2024-03-07T00:04:38;15.20;71.80
46754;DHT22;32500;50.620;3.400;2024-03-07T00:07:05;15.10;71.70
46754;DHT22;32500;50.620;3.400;2024-03-07T00:09:32;15.10;71.80
46754;DHT22;32500;50.620;3.400;2024-03-07T00:11:58;15.10;71.70
46754;DHT22;32500;50.620;3.400;2024-03-07T00:14:24;15.10;71.80
46754;DHT22;32500;50.620;3.400;2024-03-07T00:16:57;15.10;71.80
46754;DHT22;32500;50.620;3.400;2024-03-07T00:19:23;15.10;71.80
46754;DHT22;32500;50.620;3.400;2024-03-07T00:21:58;15.00;71.70
46754;DHT22;32500;50.620;3.400;2024-03-07T00:24:24;15.00;71.70
46754;DHT22;32500;50.620;3.400;2024-03-07T00:26:50;15.10;71.80
46754;DHT22;32500;50.620;3.400;2024-03-07T00:29:17;15.10;71.60
46754;DHT22;32500;50.620;3.400;2024-03-07T00:31:46;15.00;71.70
46754;DHT22;32500;50.620;3.400;2024-03-07T00:34:15;15.00;72.50
46754;DHT22;32500;50.620;3.400;2024-03-07T00:36:45;15.00;71.80
46754;DHT22;32500;50.620;3.400;2024-03-07T00:39:11;15.00;71.80
46754;DHT22;32500;50.620;3.400;2024-03-07T00:41:40;15.00;71.70
46754;DHT22;32500;50.620;3.400;2024-03-07T00:44:07;15.00;71.80
46754;DHT22;32500;50.620;3.400;2024-03-07T00:46:37;15.00;71.70
46754;DHT22;32500;50.620;3.400;2024-03-07T00:49:03;14.90;71.70
46754;DHT22;32500;50.620;3.400;2024-03-07T00:51:30;15.00;71.70
46754;DHT22;32500;50.620;3.400;2024-03-07T00:53:56;15.00;71.60
46754;DHT22;32500;50.620;3.400;2024-03-07T00:56:22;14.90;71.60
46754;DHT22;32500;50.620;3.400;2024-03-07T00:58:51;15.00;71.70
46754;DHT22;32500;50.620;3.400;2024-03-07T01:01:17;14.90;71.70
46754;DHT22;32500;50.620;3.400;2024-03-07T01:03:44;14.90;71.70
46754;DHT22;32500;50.620;3.400;2024-03-07T01:06:10;14.90;71.70
46754;DHT22;32500;50.620;3.400;2024-03-07T01:08:36;14.90;71.70
46754;DHT22;32500;50.620;3.400;2024-03-07T01:11:03;14.90;71.60
46754;DHT22;32500;50.620;3.400;2024-03-07T01:13:44;14.90;71.60
46754;DHT22;32500;50.620;3.400;2024-03-07T01:16:10;14.80;71.60
46754;DHT22;32500;50.620;3.400;2024-03-07T01:18:37;14.90;71.70
46754;DHT22;32500;50.620;3.400;2024-03-07T01:21:04;14.80;71.50
46754;DHT22;32500;50.620;3.400;2024-03-07T01:23:31;14.80;71.60
46754;DHT22;32500;50.620;3.400;2024-03-07T01:25:58;14.80;71.60
46754;DHT22;32500;50.620;3.400;2024-03-07T01:28:24;14.80;71.70
46754;DHT22;32500;50.620;3.400;2024-03-07T01:30:51;14.80;71.60
46754;DHT22;32500;50.620;3.400;2024-03-07T01:33:18;14.80;71.50
46754;DHT22;32500;50.620;3.400;2024-03-07T01:35:44;14.80;71.60
46754;DHT22;32500;50.620;3.400;2024-03-07T01:38:11;14.80;71.70
46754;DHT22;32500;50.620;3.400;2024-03-07T01:40:39;14.70;71.60
46754;DHT22;32500;50.620;3.400;2024-03-07T01:43:05;14.70;71.50
46754;DHT22;32500;50.620;3.400;2024-03-07T01:45:31;14.70;71.50
46754;DHT22;32500;50.620;3.400;2024-03-07T01:47:57;14.70;71.70
46754;DHT22;32500;50.620;3.400;2024-03-07T01:50:23;14.70;71.70
46754;DHT22;32500;50.620;3.400;2024-03-07T01:52:50;14.70;71.80
46754;DHT22;32500;50.620;3.400;2024-03-07T01:55:21;14.60;71.70
46754;DHT22;32500;50.620;3.400;2024-03-07T01:57:47;14.60;71.80
46754;DHT22;32500;50.620;3.400;2024-03-07T02:00:13;14.60;71.80
46754;DHT22;32500;50.620;3.400;2024-03-07T02:02:39;14.60;71.80
46754;DHT22;32500;50.620;3.400;2024-03-07T02:05:05;14.60;71.80
46754;DHT22;32500;50.620;3.400;2024-03-07T02:07:31;14.60;71.80
46754;DHT22;32500;50.620;3.400;2024-03-07T02:10:03;14.60;71.80
46754;DHT22;32500;50.620;3.400;2024-03-07T02:12:29;14.50;71.80
46754;DHT22;32500;50.620;3.400;2024-03-07T02:14:56;14.50;72.60
46754;DHT22;32500;50.620;3.400;2024-03-07T02:17:26;14.50;71.80
46754;DHT22;32500;50.620;3.400;2024-03-07T02:19:52;14.50;71.90
46754;DHT22;32500;50.620;3.400;2024-03-07T02:22:20;14.50;71.80
46754;DHT22;32500;50.620;3.400;2024-03-07T02:24:46;14.50;71.70
46754;DHT22;32500;50.620;3.400;2024-03-07T02:27:13;14.50;71.70
46754;DHT22;32500;50.620;3.400;2024-03-07T02:29:40;14.50;71.80
46754;DHT22;32500;50.620;3.400;2024-03-07T02:32:06;14.40;71.80
46754;DHT22;32500;50.620;3.400;2024-03-07T02:34:32;14.40;71.80
46754;DHT22;32500;50.620;3.400;2024-03-07T02:36:58;14.40;71.80
46754;DHT22;32500;50.620;3.400;2024-03-07T02:39:23;14.40;71.80
46754;DHT22;32500;50.620;3.400;2024-03-07T02:41:52;14.40;71.90
46754;DHT22;32500;50.620;3.400;2024-03-07T02:44:18;14.40;71.90
46754;DHT22;32500;50.620;3.400;2024-03-07T02:46:45;14.40;71.90
46754;DHT22;32500;50.620;3.400;2024-03-07T02:49:10;14.40;71.80
46754;DHT22;32500;50.620;3.400;2024-03-07T02:51:36;14.40;72.50
46754;DHT22;32500;50.620;3.400;2024-03-07T02:54:02;14.40;71.80
46754;DHT22;32500;50.620;3.400;2024-03-07T02:56:31;14.40;71.90
46754;DHT22;32500;50.620;3.400;2024-03-07T02:58:56;14.40;71.80
46754;DHT22;32500;50.620;3.400;2024-03-07T03:01:22;14.30;71.80
46754;DHT22;32500;50.620;3.400;2024-03-07T03:03:48;14.30;71.80
46754;DHT22;32500;50.620;3.400;2024-03-07T03:06:13;14.30;71.80
46754;DHT22;32500;50.620;3.400;2024-03-07T03:08:39;14.30;71.80
46754;DHT22;32500;50.620;3.400;2024-03-07T03:11:05;14.30;71.90
46754;DHT22;32500;50.620;3.400;2024-03-07T03:13:30;14.30;71.90
46754;DHT22;32500;50.620;3.400;2024-03-07T03:15:57;14.30;71.90
46754;DHT22;32500;50.620;3.400;2024-03-07T03:18:23;14.30;71.90
46754;DHT22;32500;50.620;3.400;2024-03-07T03:20:49;14.20;71.80
46754;DHT22;32500;50.620;3.400;2024-03-07T03:23:15;14.30;71.90
46754;DHT22;32500;50.620;3.400;2024-03-07T03:25:42;14.20;71.80
46754;DHT22;32500;50.620;3.400;2024-03-07T03:28:08;14.20;71.70
46754;DHT22;32500;50.620;3.400;2024-03-07T03:30:40;14.20;71.70
46754;DHT22;32500;50.620;3.400;2024-03-07T03:33:09;14.20;71.80
46754;DHT22;32500;50.620;3.400;2024-03-07T03:35:39;14.20;71.80
46754;DHT22;32500;50.620;3.400;2024-03-07T03:38:05;14.30;71.70
46754;DHT22;32500;50.620;3.400;2024-03-07T03:40:31;14.20;71.80
46754;DHT22;32500;50.620;3.400;2024-03-07T03:42:57;14.20;71.80
46754;DHT22;32500;50.620;3.400;2024-03-07T03:45:22;14.20;71.80
46754;DHT22;32500;50.620;3.400;2024-03-07T03:47:50;14.20;71.70
46754;DHT22;32500;50.620;3.400;2024-03-07T03:50:17;14.20;71.80
46754;DHT22;32500;50.620;3.400;2024-03-07T03:52:43;14.20;71.80
46754;DHT22;32500;50.620;3.400;2024-03-07T03:55:10;14.20;71.80
46754;DHT22;32500;50.620;3.400;2024-03-07T03:57:38;14.20;71.70
46754;DHT22;32500;50.620;3.400;2024-03-07T04:00:05;14.20;72.00
46754;DHT22;32500;50.620;3.400;2024-03-07T04:02:41;14.20;71.80
46754;DHT22;32500;50.620;3.400;2024-03-07T04:05:11;14.20;72.00
46754;DHT22;32500;50.620;3.400;2024-03-07T04:07:38;14.20;71.90
46754;DHT22;32500;50.620;3.400;2024-03-07T04:10:05;14.20;71.90
46754;DHT22;32500;50.620;3.400;2024-03-07T04:12:39;14.20;71.80
46754;DHT22;32500;50.620;3.400;2024-03-07T04:15:13;14.20;71.90
46754;DHT22;32500;50.620;3.400;2024-03-07T04:17:42;14.10;71.90
46754;DHT22;32500;50.620;3.400;2024-03-07T04:20:09;14.10;72.10
46754;DHT22;32500;50.620;3.400;2024-03-07T04:22:39;14.10;72.00
46754;DHT22;32500;50.620;3.400;2024-03-07T04:25:06;14.10;71.90
46754;DHT22;32500;50.620;3.400;2024-03-07T04:27:33;14.10;72.00
46754;DHT22;32500;50.620;3.400;2024-03-07T04:29:59;14.10;72.10
46754;DHT22;32500;50.620;3.400;2024-03-07T04:32:28;14.10;72.10
46754;DHT22;32500;50.620;3.400;2024-03-07T04:34:54;14.10;71.90
46754;DHT22;32500;50.620;3.400;2024-03-07T04:37:23;14.00;71.90
46754;DHT22;32500;50.620;3.400;2024-03-07T04:39:48;14.00;72.10
46754;DHT22;32500;50.620;3.400;2024-03-07T04:42:14;14.10;72.10
46754;DHT22;32500;50.620;3.400;2024-03-07T04:44:41;14.10;72.10
46754;DHT22;32500;50.620;3.400;2024-03-07T04:47:06;14.00;72.00
46754;DHT22;32500;50.620;3.400;2024-03-07T04:49:33;14.00;72.10
46754;DHT22;32500;50.620;3.400;2024-03-07T04:52:00;14.00;72.00
46754;DHT22;32500;50.620;3.400;2024-03-07T04:54:27;14.00;72.10
46754;DHT22;32500;50.620;3.400;2024-03-07T04:56:53;14.00;72.10
46754;DHT22;32500;50.620;3.400;2024-03-07T04:59:19;14.00;72.10
46754;DHT22;32500;50.620;3.400;2024-03-07T05:01:46;14.00;72.10
46754;DHT22;32500;50.620;3.400;2024-03-07T05:04:13;14.00;72.10
46754;DHT22;32500;50.620;3.400;2024-03-07T05:06:39;14.00;72.20
46754;DHT22;32500;50.620;3.400;2024-03-07T05:09:08;13.90;72.00
46754;DHT22;32500;50.620;3.400;2024-03-07T05:11:34;14.00;72.10
46754;DHT22;32500;50.620;3.400;2024-03-07T05:14:01;13.90;72.00
46754;DHT22;32500;50.620;3.400;2024-03-07T05:16:27;14.00;72.80
46754;DHT22;32500;50.620;3.400;2024-03-07T05:18:53;13.90;72.00
46754;DHT22;32500;50.620;3.400;2024-03-07T05:21:19;13.90;72.00
46754;DHT22;32500;50.620;3.400;2024-03-07T05:24:06;13.90;72.10
46754;DHT22;32500;50.620;3.400;2024-03-07T05:26:36;13.90;72.10
46754;DHT22;32500;50.620;3.400;2024-03-07T05:29:05;13.90;72.00
46754;DHT22;32500;50.620;3.400;2024-03-07T05:31:36;13.90;72.00
46754;DHT22;32500;50.620;3.400;2024-03-07T05:34:03;13.90;72.00
46754;DHT22;32500;50.620;3.400;2024-03-07T05:36:32;13.90;72.00
46754;DHT22;32500;50.620;3.400;2024-03-07T05:38:58;13.90;72.00
46754;DHT22;32500;50.620;3.400;2024-03-07T05:41:25;13.90;72.00
46754;DHT22;32500;50.620;3.400;2024-03-07T05:43:53;13.90;72.00
46754;DHT22;32500;50.620;3.400;2024-03-07T05:46:19;13.80;71.90
46754;DHT22;32500;50.620;3.400;2024-03-07T05:48:45;13.80;71.90
46754;DHT22;32500;50.620;3.400;2024-03-07T05:51:15;13.90;72.00
46754;DHT22;32500;50.620;3.400;2024-03-07T05:53:41;13.80;71.90
46754;DHT22;32500;50.620;3.400;2024-03-07T05:56:07;13.80;72.10
46754;DHT22;32500;50.620;3.400;2024-03-07T05:58:33;13.80;72.10
46754;DHT22;32500;50.620;3.400;2024-03-07T06:00:59;13.80;72.10
46754;DHT22;32500;50.620;3.400;2024-03-07T06:03:25;13.80;72.20
46754;DHT22;32500;50.620;3.400;2024-03-07T06:05:51;13.80;72.20
46754;DHT22;32500;50.620;3.400;2024-03-07T06:08:18;13.70;72.10
46754;DHT22;32500;50.620;3.400;2024-03-07T06:10:44;13.70;72.30
46754;DHT22;32500;50.620;3.400;2024-03-07T06:13:15;13.70;72.40
46754;DHT22;32500;50.620;3.400;2024-03-07T06:15:43;13.70;72.50
46754;DHT22;32500;50.620;3.400;2024-03-07T06:18:09;13.70;72.70
46754;DHT22;32500;50.620;3.400;2024-03-07T06:20:40;13.70;72.50
46754;DHT22;32500;50.620;3.400;2024-03-07T06:23:06;13.70;72.50
46754;DHT22;32500;50.620;3.400;2024-03-07T06:25:32;13.70;72.50
46754;DHT22;32500;50.620;3.400;2024-03-07T06:28:25;13.70;72.30
46754;DHT22;32500;50.620;3.400;2024-03-07T06:30:50;13.70;72.30
46754;DHT22;32500;50.620;3.400;2024-03-07T06:33:16;13.70;72.30
46754;DHT22;32500;50.620;3.400;2024-03-07T06:35:42;13.70;72.30
46754;DHT22;32500;50.620;3.400;2024-03-07T06:38:11;13.70;72.30
46754;DHT22;32500;50.620;3.400;2024-03-07T06:40:40;13.70;72.30
46754;DHT22;32500;50.620;3.400;2024-03-07T06:43:09;13.70;72.30
46754;DHT22;32500;50.620;3.400;2024-03-07T06:45:38;13.70;72.30
46754;DHT22;32500;50.620;3.400;2024-03-07T06:48:05;13.60;72.30
46754;DHT22;32500;50.620;3.400;2024-03-07T06:50:34;13.70;72.30
46754;DHT22;32500;50.620;3.400;2024-03-07T06:53:01;13.70;72.40
46754;DHT22;32500;50.620;3.400;2024-03-07T06:55:26;13.60;72.30
46754;DHT22;32500;50.620;3.400;2024-03-07T06:57:53;13.70;72.30
46754;DHT22;32500;50.620;3.400;2024-03-07T07:00:19;13.70;72.20
46754;DHT22;32500;50.620;3.400;2024-03-07T07:02:46;13.60;72.10
46754;DHT22;32500;50.620;3.400;2024-03-07T07:05:12;13.60;72.30
46754;DHT22;32500;50.620;3.400;2024-03-07T07:07:38;13.60;72.20
46754;DHT22;32500;50.620;3.400;2024-03-07T07:10:05;13.60;72.20
46754;DHT22;32500;50.620;3.400;2024-03-07T07:12:34;13.70;72.30
46754;DHT22;32500;50.620;3.400;2024-03-07T07:15:00;13.60;72.20
46754;DHT22;32500;50.620;3.400;2024-03-07T07:17:26;13.60;72.30
46754;DHT22;32500;50.620;3.400;2024-03-07T07:19:54;13.70;72.30
46754;DHT22;32500;50.620;3.400;2024-03-07T07:22:21;13.70;73.10
46754;DHT22;32500;50.620;3.400;2024-03-07T07:24:47;13.70;72.30
46754;DHT22;32500;50.620;3.400;2024-03-07T07:27:12;13.70;72.10
46754;DHT22;32500;50.620;3.400;2024-03-07T07:29:38;13.70;72.30
46754;DHT22;32500;50.620;3.400;2024-03-07T07:32:05;13.70;72.30
46754;DHT22;32500;50.620;3.400;2024-03-07T07:34:30;13.70;72.30
46754;DHT22;32500;50.620;3.400;2024-03-07T07:36:56;13.70;72.30
46754;DHT22;32500;50.620;3.400;2024-03-07T07:39:22;13.70;72.30
46754;DHT22;32500;50.620;3.400;2024-03-07T07:41:48;13.70;72.30
46754;DHT22;32500;50.620;3.400;2024-03-07T07:44:14;13.70;72.80
46754;DHT22;32500;50.620;3.400;2024-03-07T07:46:40;13.90;73.10
46754;DHT22;32500;50.620;3.400;2024-03-07T07:49:06;14.00;72.80
46754;DHT22;32500;50.620;3.400;2024-03-07T07:51:32;14.00;72.60
46754;DHT22;32500;50.620;3.400;2024-03-07T07:53:58;14.00;72.40
46754;DHT22;32500;50.620;3.400;2024-03-07T07:56:25;14.10;72.40
46754;DHT22;32500;50.620;3.400;2024-03-07T07:58:53;14.10;72.20
46754;DHT22;32500;50.620;3.400;2024-03-07T08:01:20;14.10;72.00
46754;DHT22;32500;50.620;3.400;2024-03-07T08:03:46;14.10;72.20
46754;DHT22;32500;50.620;3.400;2024-03-07T08:06:12;14.00;72.10
46754;DHT22;32500;50.620;3.400;2024-03-07T08:08:38;14.00;72.10
46754;DHT22;32500;50.620;3.400;2024-03-07T08:11:04;14.00;72.10
46754;DHT22;32500;50.620;3.400;2024-03-07T08:13:29;14.00;72.40
46754;DHT22;32500;50.620;3.400;2024-03-07T08:15:55;14.10;72.80
46754;DHT22;32500;50.620;3.400;2024-03-07T08:18:20;14.00;72.40
46754;DHT22;32500;50.620;3.400;2024-03-07T08:20:47;14.10;72.60
46754;DHT22;32500;50.620;3.400;2024-03-07T08:23:13;14.10;72.30
46754;DHT22;32500;50.620;3.400;2024-03-07T08:25:39;14.10;72.30
46754;DHT22;32500;50.620;3.400;2024-03-07T08:28:06;14.10;72.30
46754;DHT22;32500;50.620;3.400;2024-03-07T08:30:32;14.10;72.20
46754;DHT22;32500;50.620;3.400;2024-03-07T08:32:58;14.10;72.20
46754;DHT22;32500;50.620;3.400;2024-03-07T08:35:24;14.10;72.20
46754;DHT22;32500;50.620;3.400;2024-03-07T08:37:53;14.10;72.20
46754;DHT22;32500;50.620;3.400;2024-03-07T08:40:20;14.10;72.20
46754;DHT22;32500;50.620;3.400;2024-03-07T08:42:51;14.10;72.80
46754;DHT22;32500;50.620;3.400;2024-03-07T08:45:20;14.20;73.70
46754;DHT22;32500;50.620;3.400;2024-03-07T08:47:47;14.10;73.70
46754;DHT22;32500;50.620;3.400;2024-03-07T08:50:13;14.10;74.20
46754;DHT22;32500;50.620;3.400;2024-03-07T08:52:40;14.20;74.90
46754;DHT22;32500;50.620;3.400;2024-03-07T08:55:07;14.20;74.90
46754;DHT22;32500;50.620;3.400;2024-03-07T08:57:36;14.20;73.50
46754;DHT22;32500;50.620;3.400;2024-03-07T09:00:04;14.20;74.00
46754;DHT22;32500;50.620;3.400;2024-03-07T09:02:40;14.20;73.80
46754;DHT22;32500;50.620;3.400;2024-03-07T09:05:07;14.20;73.50
46754;DHT22;32500;50.620;3.400;2024-03-07T09:07:35;14.20;73.20
46754;DHT22;32500;50.620;3.400;2024-03-07T09:10:01;14.20;73.00
46754;DHT22;32500;50.620;3.400;2024-03-07T09:12:27;14.20;72.80
46754;DHT22;32500;50.620;3.400;2024-03-07T09:14:53;14.20;72.80
46754;DHT22;32500;50.620;3.400;2024-03-07T09:17:20;14.20;72.60
46754;DHT22;32500;50.620;3.400;2024-03-07T09:19:46;14.20;72.30
46754;DHT22;32500;50.620;3.400;2024-03-07T09:22:11;14.20;72.40
46754;DHT22;32500;50.620;3.400;2024-03-07T09:24:37;14.20;72.20
46754;DHT22;32500;50.620;3.400;2024-03-07T09:27:03;14.20;72.10
46754;DHT22;32500;50.620;3.400;2024-03-07T09:29:30;14.20;72.00
46754;DHT22;32500;50.620;3.400;2024-03-07T09:31:56;14.20;71.70
46754;DHT22;32500;50.620;3.400;2024-03-07T09:34:23;14.30;71.90
46754;DHT22;32500;50.620;3.400;2024-03-07T09:36:53;14.30;71.70
46754;DHT22;32500;50.620;3.400;2024-03-07T09:39:19;14.30;71.60
46754;DHT22;32500;50.620;3.400;2024-03-07T09:41:45;14.30;71.70
46754;DHT22;32500;50.620;3.400;2024-03-07T09:44:18;14.30;70.30
46754;DHT22;32500;50.620;3.400;2024-03-07T09:46:57;14.30;70.80
46754;DHT22;32500;50.620;3.400;2024-03-07T09:49:25;14.30;70.90
46754;DHT22;32500;50.620;3.400;2024-03-07T09:51:55;14.30;70.90
46754;DHT22;32500;50.620;3.400;2024-03-07T09:54:22;14.30;70.60
46754;DHT22;32500;50.620;3.400;2024-03-07T09:56:53;14.30;70.40
46754;DHT22;32500;50.620;3.400;2024-03-07T09:59:19;14.40;70.60
46754;DHT22;32500;50.620;3.400;2024-03-07T10:01:50;14.30;70.50
46754;DHT22;32500;50.620;3.400;2024-03-07T10:04:19;14.40;70.50
46754;DHT22;32500;50.620;3.400;2024-03-07T10:06:48;14.40;70.40
46754;DHT22;32500;50.620;3.400;2024-03-07T10:09:15;14.40;70.40
46754;DHT22;32500;50.620;3.400;2024-03-07T10:11:41;14.40;70.50
46754;DHT22;32500;50.620;3.400;2024-03-07T10:14:08;14.40;70.50
46754;DHT22;32500;50.620;3.400;2024-03-07T10:16:34;14.40;70.60
46754;DHT22;32500;50.620;3.400;2024-03-07T10:19:04;14.40;70.70
46754;DHT22;32500;50.620;3.400;2024-03-07T10:21:30;14.40;70.70
46754;DHT22;32500;50.620;3.400;2024-03-07T10:24:06;14.40;70.60
46754;DHT22;32500;50.620;3.400;2024-03-07T10:26:37;14.40;70.70
46754;DHT22;32500;50.620;3.400;2024-03-07T10:29:04;14.50;70.80
46754;DHT22;32500;50.620;3.400;2024-03-07T10:31:34;14.50;70.80
46754;DHT22;32500;50.620;3.400;2024-03-07T10:34:03;14.50;70.80
46754;DHT22;32500;50.620;3.400;2024-03-07T10:36:32;14.50;70.90
46754;DHT22;32500;50.620;3.400;2024-03-07T10:38:59;14.50;70.80
46754;DHT22;32500;50.620;3.400;2024-03-07T10:41:39;14.50;70.90
46754;DHT22;32500;50.620;3.400;2024-03-07T10:44:11;14.50;70.90
46754;DHT22;32500;50.620;3.400;2024-03-07T10:46:44;14.50;70.90
46754;DHT22;32500;50.620;3.400;2024-03-07T10:49:16;14.50;70.80
46754;DHT22;32500;50.620;3.400;2024-03-07T10:51:46;14.50;70.90
46754;DHT22;32500;50.620;3.400;2024-03-07T10:54:22;14.60;70.90
46754;DHT22;32500;50.620;3.400;2024-03-07T10:57:11;14.60;70.90
46754;DHT22;32500;50.620;3.400;2024-03-07T10:59:45;14.60;70.70
46754;DHT22;32500;50.620;3.400;2024-03-07T11:02:37;14.60;70.80
46754;DHT22;32500;50.620;3.400;2024-03-07T11:05:07;14.70;70.90
46754;DHT22;32500;50.620;3.400;2024-03-07T11:07:37;14.70;70.90
46754;DHT22;32500;50.620;3.400;2024-03-07T11:10:05;14.70;71.00
46754;DHT22;32500;50.620;3.400;2024-03-07T11:12:40;14.70;71.20
46754;DHT22;32500;50.620;3.400;2024-03-07T11:15:08;14.80;71.50
46754;DHT22;32500;50.620;3.400;2024-03-07T11:17:44;14.90;73.70
46754;DHT22;32500;50.620;3.400;2024-03-07T11:20:21;14.90;74.40
46754;DHT22;32500;50.620;3.400;2024-03-07T11:22:47;14.90;74.70
46754;DHT22;32500;50.620;3.400;2024-03-07T11:25:13;15.00;74.90
46754;DHT22;32500;50.620;3.400;2024-03-07T11:27:39;15.00;75.20
46754;DHT22;32500;50.620;3.400;2024-03-07T11:30:10;15.00;75.40
46754;DHT22;32500;50.620;3.400;2024-03-07T11:32:40;15.00;75.20
46754;DHT22;32500;50.620;3.400;2024-03-07T11:35:13;15.10;75.70
46754;DHT22;32500;50.620;3.400;2024-03-07T11:37:48;15.10;75.30
46754;DHT22;32500;50.620;3.400;2024-03-07T11:42:47;15.00;72.80
46754;DHT22;32500;50.620;3.400;2024-03-07T11:45:14;15.10;72.40
46754;DHT22;32500;50.620;3.400;2024-03-07T11:47:59;15.10;72.30
46754;DHT22;32500;50.620;3.400;2024-03-07T11:50:38;15.10;72.00
46754;DHT22;32500;50.620;3.400;2024-03-07T11:53:05;15.20;72.10
46754;DHT22;32500;50.620;3.400;2024-03-07T11:55:35;15.20;71.90
46754;DHT22;32500;50.620;3.400;2024-03-07T11:58:20;15.20;71.70
46754;DHT22;32500;50.620;3.400;2024-03-07T12:00:50;15.20;71.50
46754;DHT22;32500;50.620;3.400;2024-03-07T12:03:20;15.30;71.50
46754;DHT22;32500;50.620;3.400;2024-03-07T12:05:51;15.30;71.50
46754;DHT22;32500;50.620;3.400;2024-03-07T12:08:17;15.30;71.20
46754;DHT22;32500;50.620;3.400;2024-03-07T12:10:44;15.30;71.20
46754;DHT22;32500;50.620;3.400;2024-03-07T12:13:11;15.40;71.20
46754;DHT22;32500;50.620;3.400;2024-03-07T12:15:38;15.40;71.20
46754;DHT22;32500;50.620;3.400;2024-03-07T12:18:05;15.40;71.00
46754;DHT22;32500;50.620;3.400;2024-03-07T12:20:43;15.40;70.80
46754;DHT22;32500;50.620;3.400;2024-03-07T12:23:15;15.40;70.80
46754;DHT22;32500;50.620;3.400;2024-03-07T12:25:45;15.40;70.70
46754;DHT22;32500;50.620;3.400;2024-03-07T12:28:14;15.50;70.60
46754;DHT22;32500;50.620;3.400;2024-03-07T12:33:12;15.50;70.60
46754;DHT22;32500;50.620;3.400;2024-03-07T12:36:01;15.50;70.40
46754;DHT22;32500;50.620;3.400;2024-03-07T12:38:31;15.50;70.30
46754;DHT22;32500;50.620;3.400;2024-03-07T12:41:04;15.50;70.10
46754;DHT22;32500;50.620;3.400;2024-03-07T12:43:39;15.50;70.00
46754;DHT22;32500;50.620;3.400;2024-03-07T12:46:09;15.60;70.00
46754;DHT22;32500;50.620;3.400;2024-03-07T12:48:37;15.60;69.90
46754;DHT22;32500;50.620;3.400;2024-03-07T12:51:04;15.60;70.40
46754;DHT22;32500;50.620;3.400;2024-03-07T12:53:30;15.60;69.90
46754;DHT22;32500;50.620;3.400;2024-03-07T12:55:57;15.50;70.10
46754;DHT22;32500;50.620;3.400;2024-03-07T12:58:22;15.50;70.40
46754;DHT22;32500;50.620;3.400;2024-03-07T13:00:54;15.50;70.60
46754;DHT22;32500;50.620;3.400;2024-03-07T13:03:26;15.50;70.60
46754;DHT22;32500;50.620;3.400;2024-03-07T13:05:58;15.40;70.50
46754;DHT22;32500;50.620;3.400;2024-03-07T13:08:27;15.40;70.60
46754;DHT22;32500;50.620;3.400;2024-03-07T13:10:55;15.50;70.60
46754;DHT22;32500;50.620;3.400;2024-03-07T13:13:21;15.50;70.90
46754;DHT22;32500;50.620;3.400;2024-03-07T13:15:47;15.50;70.70
46754;DHT22;32500;50.620;3.400;2024-03-07T13:18:13;15.50;70.70
46754;DHT22;32500;50.620;3.400;2024-03-07T13:20:39;15.50;70.70
46754;DHT22;32500;50.620;3.400;2024-03-07T13:23:04;15.50;70.70
46754;DHT22;32500;50.620;3.400;2024-03-07T13:25:31;15.50;70.80
46754;DHT22;32500;50.620;3.400;2024-03-07T13:30:34;15.50;70.90
46754;DHT22;32500;50.620;3.400;2024-03-07T13:33:02;15.50;70.90
46754;DHT22;32500;50.620;3.400;2024-03-07T13:35:31;15.50;70.90
46754;DHT22;32500;50.620;3.400;2024-03-07T13:37:57;15.50;71.00
46754;DHT22;32500;50.620;3.400;2024-03-07T13:40:24;15.50;70.90
46754;DHT22;32500;50.620;3.400;2024-03-07T13:42:59;15.50;70.60
46754;DHT22;32500;50.620;3.400;2024-03-07T13:45:28;15.50;70.80
46754;DHT22;32500;50.620;3.400;2024-03-07T13:47:55;15.60;70.80
46754;DHT22;32500;50.620;3.400;2024-03-07T13:50:23;15.60;70.70
46754;DHT22;32500;50.620;3.400;2024-03-07T13:52:50;15.60;70.90
46754;DHT22;32500;50.620;3.400;2024-03-07T14:06:38;15.60;70.90
46754;DHT22;32500;50.620;3.400;2024-03-07T14:26:10;15.90;69.70
46754;DHT22;32500;50.620;3.400;2024-03-07T14:31:26;15.90;69.40
46754;DHT22;32500;50.620;3.400;2024-03-07T14:34:04;16.00;69.60
46754;DHT22;32500;50.620;3.400;2024-03-07T14:36:45;16.00;69.40
46754;DHT22;32500;50.620;3.400;2024-03-07T14:39:12;16.00;69.50
46754;DHT22;32500;50.620;3.400;2024-03-07T14:41:57;16.00;69.30
46754;DHT22;32500;50.620;3.400;2024-03-07T14:44:24;16.00;69.30
46754;DHT22;32500;50.620;3.400;2024-03-07T14:47:03;16.00;69.20
46754;DHT22;32500;50.620;3.400;2024-03-07T14:49:31;16.00;69.10
46754;DHT22;32500;50.620;3.400;2024-03-07T14:51:58;16.00;69.00
46754;DHT22;32500;50.620;3.400;2024-03-07T14:54:24;16.00;69.00
46754;DHT22;32500;50.620;3.400;2024-03-07T14:56:50;16.10;69.10
46754;DHT22;32500;50.620;3.400;2024-03-07T14:59:17;16.00;68.90
46754;DHT22;32500;50.620;3.400;2024-03-07T15:01:44;16.00;68.70
46754;DHT22;32500;50.620;3.400;2024-03-07T15:04:10;16.10;68.90
46754;DHT22;32500;50.620;3.400;2024-03-07T15:06:40;16.10;68.90
46754;DHT22;32500;50.620;3.400;2024-03-07T15:09:07;16.10;68.80
46754;DHT22;32500;50.620;3.400;2024-03-07T15:11:36;16.10;68.80
46754;DHT22;32500;50.620;3.400;2024-03-07T15:14:11;16.10;68.90
46754;DHT22;32500;50.620;3.400;2024-03-07T15:16:38;16.10;68.70
46754;DHT22;32500;50.620;3.400;2024-03-07T15:19:05;16.10;68.70
46754;DHT22;32500;50.620;3.400;2024-03-07T15:21:31;16.10;68.60
46754;DHT22;32500;50.620;3.400;2024-03-07T15:23:58;16.10;68.60
46754;DHT22;32500;50.620;3.400;2024-03-07T15:26:24;16.00;68.50
46754;DHT22;32500;50.620;3.400;2024-03-07T15:28:53;16.10;68.50
46754;DHT22;32500;50.620;3.400;2024-03-07T15:31:23;16.10;68.30
46754;DHT22;32500;50.620;3.400;2024-03-07T15:33:52;16.10;68.10
46754;DHT22;32500;50.620;3.400;2024-03-07T15:36:18;16.20;68.10
46754;DHT22;32500;50.620;3.400;2024-03-07T15:38:45;16.20;68.10
46754;DHT22;32500;50.620;3.400;2024-03-07T15:41:11;16.10;68.00
46754;DHT22;32500;50.620;3.400;2024-03-07T15:43:41;16.10;68.10
46754;DHT22;32500;50.620;3.400;2024-03-07T15:46:13;16.10;68.10
46754;DHT22;32500;50.620;3.400;2024-03-07T15:48:46;16.10;68.00
46754;DHT22;32500;50.620;3.400;2024-03-07T15:51:15;16.20;67.80
46754;DHT22;32500;50.620;3.400;2024-03-07T15:53:40;16.20;67.60
46754;DHT22;32500;50.620;3.400;2024-03-07T15:56:07;16.20;67.60
46754;DHT22;32500;50.620;3.400;2024-03-07T15:58:33;16.20;67.60
46754;DHT22;32500;50.620;3.400;2024-03-07T16:00:59;16.20;67.60
46754;DHT22;32500;50.620;3.400;2024-03-07T16:03:25;16.20;67.70
46754;DHT22;32500;50.620;3.400;2024-03-07T16:05:51;16.20;67.80
46754;DHT22;32500;50.620;3.400;2024-03-07T16:08:19;16.20;67.70
46754;DHT22;32500;50.620;3.400;2024-03-07T16:10:46;16.10;67.60
46754;DHT22;32500;50.620;3.400;2024-03-07T16:13:13;16.10;67.70
46754;DHT22;32500;50.620;3.400;2024-03-07T16:15:41;16.10;67.70